sensor_id;sensor_type;location;lat;lon;timestamp;P1;durP1;ratioP1;P2;durP2;ratioP2
10920;SDS011;5513;50.580;8.818;2022-08-01T00:01:15;2.45;;;1.77;;
10920;SDS011;5513;50.580;8.818;2022-08-01T00:03:44;3.17;;;1.70;;
10920;SDS011;5513;50.580;8.818;2022-08-01T00:06:12;2.20;;;1.70;;
10920;SDS011;5513;50.580;8.818;2022-08-01T00:08:40;2.17;;;1.70;;
10920;SDS011;5513;50.580;8.818;2022-08-01T00:11:09;3.78;;;1.70;;
10920;SDS011;5513;50.580;8.818;2022-08-01T00:13:37;2.90;;;1.75;;
10920;SDS011;5513;50.580;8.818;2022-08-01T00:16:07;3.35;;;1.70;;
10920;SDS011;5513;50.580;8.818;2022-08-01T00:18:35;3.88;;;1.70;;
10920;SDS011;5513;50.580;8.818;2022-08-01T00:21:04;4.50;;;1.70;;
10920;SDS011;5513;50.580;8.818;2022-08-01T00:23:32;3.78;;;1.80;;
10920;SDS011;5513;50.580;8.818;2022-08-01T00:26:01;2.28;;;1.80;;
10920;SDS011;5513;50.580;8.818;2022-08-01T00:28:29;3.22;;;2.47;;
10920;SDS011;5513;50.580;8.818;2022-08-01T00:30:58;2.40;;;2.08;;
10920;SDS011;5513;50.580;8.818;2022-08-01T00:33:27;2.92;;;2.10;;
10920;SDS011;5513;50.580;8.818;2022-08-01T00:35:55;3.03;;;2.38;;
10920;SDS011;5513;50.580;8.818;2022-08-01T00:38:24;4.32;;;2.90;;
10920;SDS011;5513;50.580;8.818;2022-08-01T00:40:52;5.75;;;2.53;;
10920;SDS011;5513;50.580;8.818;2022-08-01T00:43:21;2.78;;;2.50;;
10920;SDS011;5513;50.580;8.818;2022-08-01T00:45:50;2.90;;;2.70;;
10920;SDS011;5513;50.580;8.818;2022-08-01T00:48:18;5.13;;;3.45;;
10920;SDS011;5513;50.580;8.818;2022-08-01T00:50:48;3.28;;;2.80;;
10920;SDS011;5513;50.580;8.818;2022-08-01T00:53:17;3.87;;;2.83;;
10920;SDS011;5513;50.580;8.818;2022-08-01T00:55:46;3.50;;;2.72;;
10920;SDS011;5513;50.580;8.818;2022-08-01T00:58:15;4.05;;;3.60;;
10920;SDS011;5513;50.580;8.818;2022-08-01T01:00:44;4.78;;;3.28;;
10920;SDS011;5513;50.580;8.818;2022-08-01T01:03:20;4.63;;;3.60;;
10920;SDS011;5513;50.580;8.818;2022-08-01T01:06:14;6.00;;;3.90;;
10920;SDS011;5513;50.580;8.818;2022-08-01T01:08:58;3.77;;;3.40;;
10920;SDS011;5513;50.580;8.818;2022-08-01T01:11:42;4.07;;;3.70;;
10920;SDS011;5513;50.580;8.818;2022-08-01T01:14:16;4.57;;;4.18;;
10920;SDS011;5513;50.580;8.818;2022-08-01T01:16:55;4.37;;;3.97;;
10920;SDS011;5513;50.580;8.818;2022-08-01T01:19:28;4.60;;;4.20;;
10920;SDS011;5513;50.580;8.818;2022-08-01T01:28:02;4.40;;;4.00;;
10920;SDS011;5513;50.580;8.818;2022-08-01T01:30:43;5.03;;;4.05;;
10920;SDS011;5513;50.580;8.818;2022-08-01T01:33:27;4.97;;;3.90;;
10920;SDS011;5513;50.580;8.818;2022-08-01T01:35:59;4.10;;;3.70;;
10920;SDS011;5513;50.580;8.818;2022-08-01T01:38:37;4.30;;;3.90;;
10920;SDS011;5513;50.580;8.818;2022-08-01T01:41:09;6.43;;;4.13;;
10920;SDS011;5513;50.580;8.818;2022-08-01T01:43:40;4.40;;;4.00;;
10920;SDS011;5513;50.580;8.818;2022-08-01T01:46:10;4.30;;;3.90;;
10920;SDS011;5513;50.580;8.818;2022-08-01T01:48:41;4.57;;;4.17;;
10920;SDS011;5513;50.580;8.818;2022-08-01T01:51:12;4.47;;;4.07;;
10920;SDS011;5513;50.580;8.818;2022-08-01T01:53:43;4.90;;;4.30;;
10920;SDS011;5513;50.580;8.818;2022-08-01T01:56:12;6.57;;;4.63;;
10920;SDS011;5513;50.580;8.818;2022-08-01T01:58:44;5.57;;;4.23;;
10920;SDS011;5513;50.580;8.818;2022-08-01T02:01:16;5.67;;;4.20;;
10920;SDS011;5513;50.580;8.818;2022-08-01T02:04:07;4.90;;;4.40;;
10920;SDS011;5513;50.580;8.818;2022-08-01T02:06:37;5.47;;;4.47;;
10920;SDS011;5513;50.580;8.818;2022-08-01T02:09:06;5.17;;;4.37;;
10920;SDS011;5513;50.580;8.818;2022-08-01T02:11:37;4.90;;;4.40;;
10920;SDS011;5513;50.580;8.818;2022-08-01T02:14:27;6.43;;;4.90;;
10920;SDS011;5513;50.580;8.818;2022-08-01T02:16:57;6.27;;;4.60;;
10920;SDS011;5513;50.580;8.818;2022-08-01T02:19:31;5.20;;;4.57;;
10920;SDS011;5513;50.580;8.818;2022-08-01T02:22:04;5.70;;;5.07;;
10920;SDS011;5513;50.580;8.818;2022-08-01T02:24:36;5.37;;;4.87;;
10920;SDS011;5513;50.580;8.818;2022-08-01T02:27:07;6.00;;;4.80;;
10920;SDS011;5513;50.580;8.818;2022-08-01T02:29:41;4.97;;;4.50;;
10920;SDS011;5513;50.580;8.818;2022-08-01T02:32:19;5.37;;;4.87;;
10920;SDS011;5513;50.580;8.818;2022-08-01T02:35:00;5.50;;;5.00;;
10920;SDS011;5513;50.580;8.818;2022-08-01T02:37:31;6.63;;;4.63;;
10920;SDS011;5513;50.580;8.818;2022-08-01T02:40:10;5.60;;;5.10;;
10920;SDS011;5513;50.580;8.818;2022-08-01T02:42:41;5.50;;;4.80;;
10920;SDS011;5513;50.580;8.818;2022-08-01T02:45:12;7.33;;;5.40;;
10920;SDS011;5513;50.580;8.818;2022-08-01T02:47:41;5.30;;;4.80;;
10920;SDS011;5513;50.580;8.818;2022-08-01T02:50:14;5.23;;;4.50;;
10920;SDS011;5513;50.580;8.818;2022-08-01T02:52:44;5.17;;;4.43;;
10920;SDS011;5513;50.580;8.818;2022-08-01T02:55:16;5.23;;;4.50;;
10920;SDS011;5513;50.580;8.818;2022-08-01T02:57:46;5.00;;;4.50;;
10920;SDS011;5513;50.580;8.818;2022-08-01T03:00:25;4.63;;;4.10;;
10920;SDS011;5513;50.580;8.818;2022-08-01T03:02:55;5.27;;;4.60;;
10920;SDS011;5513;50.580;8.818;2022-08-01T03:05:26;4.60;;;4.20;;
10920;SDS011;5513;50.580;8.818;2022-08-01T03:07:56;5.47;;;4.50;;
10920;SDS011;5513;50.580;8.818;2022-08-01T03:10:29;5.13;;;4.60;;
10920;SDS011;5513;50.580;8.818;2022-08-01T03:13:00;5.63;;;4.97;;
10920;SDS011;5513;50.580;8.818;2022-08-01T03:15:32;7.17;;;5.50;;
10920;SDS011;5513;50.580;8.818;2022-08-01T03:18:04;5.13;;;4.73;;
10920;SDS011;5513;50.580;8.818;2022-08-01T03:20:36;5.83;;;4.60;;
10920;SDS011;5513;50.580;8.818;2022-08-01T03:23:05;5.63;;;4.63;;
10920;SDS011;5513;50.580;8.818;2022-08-01T03:25:35;6.87;;;4.90;;
10920;SDS011;5513;50.580;8.818;2022-08-01T03:28:06;5.20;;;4.40;;
10920;SDS011;5513;50.580;8.818;2022-08-01T03:30:38;8.67;;;4.80;;
10920;SDS011;5513;50.580;8.818;2022-08-01T03:33:08;6.63;;;4.57;;
10920;SDS011;5513;50.580;8.818;2022-08-01T03:35:42;5.00;;;4.50;;
10920;SDS011;5513;50.580;8.818;2022-08-01T03:38:17;5.47;;;3.97;;
10920;SDS011;5513;50.580;8.818;2022-08-01T03:40:49;5.13;;;4.40;;
10920;SDS011;5513;50.580;8.818;2022-08-01T03:43:22;4.53;;;4.13;;
10920;SDS011;5513;50.580;8.818;2022-08-01T03:46:00;5.57;;;4.50;;
10920;SDS011;5513;50.580;8.818;2022-08-01T03:48:35;5.00;;;4.50;;
10920;SDS011;5513;50.580;8.818;2022-08-01T03:51:09;6.67;;;4.30;;
10920;SDS011;5513;50.580;8.818;2022-08-01T03:53:40;5.40;;;4.57;;
10920;SDS011;5513;50.580;8.818;2022-08-01T03:56:12;5.20;;;4.50;;
10920;SDS011;5513;50.580;8.818;2022-08-01T03:58:45;7.27;;;4.60;;
10920;SDS011;5513;50.580;8.818;2022-08-01T04:01:15;6.57;;;4.80;;
10920;SDS011;5513;50.580;8.818;2022-08-01T04:03:45;5.33;;;4.50;;
10920;SDS011;5513;50.580;8.818;2022-08-01T04:06:15;5.87;;;4.43;;
10920;SDS011;5513;50.580;8.818;2022-08-01T04:08:44;5.13;;;4.67;;
10920;SDS011;5513;50.580;8.818;2022-08-01T04:11:22;5.03;;;4.53;;
10920;SDS011;5513;50.580;8.818;2022-08-01T04:13:51;6.53;;;4.53;;
10920;SDS011;5513;50.580;8.818;2022-08-01T04:16:20;5.13;;;4.63;;
10920;SDS011;5513;50.580;8.818;2022-08-01T04:18:49;5.67;;;5.00;;
10920;SDS011;5513;50.580;8.818;2022-08-01T04:21:21;6.10;;;4.93;;
10920;SDS011;5513;50.580;8.818;2022-08-01T04:23:54;5.67;;;4.60;;
10920;SDS011;5513;50.580;8.818;2022-08-01T04:26:26;8.20;;;5.20;;
10920;SDS011;5513;50.580;8.818;2022-08-01T04:28:57;6.87;;;4.80;;
10920;SDS011;5513;50.580;8.818;2022-08-01T04:31:29;6.97;;;5.13;;
10920;SDS011;5513;50.580;8.818;2022-08-01T04:33:58;6.77;;;5.23;;
10920;SDS011;5513;50.580;8.818;2022-08-01T04:36:31;5.53;;;5.00;;
10920;SDS011;5513;50.580;8.818;2022-08-01T04:39:03;6.37;;;5.00;;
10920;SDS011;5513;50.580;8.818;2022-08-01T04:41:32;5.93;;;4.80;;
10920;SDS011;5513;50.580;8.818;2022-08-01T04:44:02;5.90;;;4.93;;
10920;SDS011;5513;50.580;8.818;2022-08-01T04:46:31;5.80;;;4.87;;
10920;SDS011;5513;50.580;8.818;2022-08-01T04:49:01;5.50;;;4.53;;
10920;SDS011;5513;50.580;8.818;2022-08-01T04:51:31;4.63;;;4.23;;
10920;SDS011;5513;50.580;8.818;2022-08-01T04:54:00;6.33;;;4.47;;
10920;SDS011;5513;50.580;8.818;2022-08-01T04:56:28;5.10;;;4.00;;
10920;SDS011;5513;50.580;8.818;2022-08-01T04:58:59;6.00;;;5.00;;
10920;SDS011;5513;50.580;8.818;2022-08-01T05:01:48;5.00;;;4.50;;
10920;SDS011;5513;50.580;8.818;2022-08-01T05:04:19;7.50;;;4.17;;
10920;SDS011;5513;50.580;8.818;2022-08-01T05:06:48;5.67;;;4.33;;
10920;SDS011;5513;50.580;8.818;2022-08-01T05:09:16;4.67;;;4.23;;
10920;SDS011;5513;50.580;8.818;2022-08-01T05:11:46;6.53;;;4.37;;
10920;SDS011;5513;50.580;8.818;2022-08-01T05:14:14;6.23;;;4.40;;
10920;SDS011;5513;50.580;8.818;2022-08-01T05:16:42;5.30;;;4.80;;
10920;SDS011;5513;50.580;8.818;2022-08-01T05:19:10;5.53;;;3.90;;
10920;SDS011;5513;50.580;8.818;2022-08-01T05:21:38;6.00;;;3.90;;
10920;SDS011;5513;50.580;8.818;2022-08-01T05:24:09;5.27;;;4.20;;
10920;SDS011;5513;50.580;8.818;2022-08-01T05:26:39;6.80;;;4.67;;
10920;SDS011;5513;50.580;8.818;2022-08-01T05:29:08;6.50;;;4.80;;
10920;SDS011;5513;50.580;8.818;2022-08-01T05:31:37;7.33;;;5.20;;
10920;SDS011;5513;50.580;8.818;2022-08-01T05:34:06;6.33;;;5.07;;
10920;SDS011;5513;50.580;8.818;2022-08-01T05:36:40;6.67;;;5.13;;
10920;SDS011;5513;50.580;8.818;2022-08-01T05:39:10;7.03;;;5.33;;
10920;SDS011;5513;50.580;8.818;2022-08-01T05:41:38;6.03;;;5.00;;
10920;SDS011;5513;50.580;8.818;2022-08-01T05:44:08;8.47;;;4.60;;
10920;SDS011;5513;50.580;8.818;2022-08-01T05:46:36;6.67;;;5.17;;
10920;SDS011;5513;50.580;8.818;2022-08-01T05:49:05;7.10;;;4.97;;
10920;SDS011;5513;50.580;8.818;2022-08-01T05:51:33;7.83;;;5.40;;
10920;SDS011;5513;50.580;8.818;2022-08-01T05:54:02;6.13;;;5.53;;
10920;SDS011;5513;50.580;8.818;2022-08-01T05:56:32;7.97;;;5.33;;
10920;SDS011;5513;50.580;8.818;2022-08-01T05:59:00;6.00;;;5.40;;
10920;SDS011;5513;50.580;8.818;2022-08-01T06:01:29;6.07;;;4.93;;
10920;SDS011;5513;50.580;8.818;2022-08-01T06:03:57;5.70;;;5.23;;
10920;SDS011;5513;50.580;8.818;2022-08-01T06:06:26;6.20;;;5.70;;
10920;SDS011;5513;50.580;8.818;2022-08-01T06:08:56;6.37;;;5.50;;
10920;SDS011;5513;50.580;8.818;2022-08-01T06:11:24;9.03;;;5.70;;
10920;SDS011;5513;50.580;8.818;2022-08-01T06:13:54;6.53;;;5.93;;
10920;SDS011;5513;50.580;8.818;2022-08-01T06:16:22;6.43;;;5.67;;
10920;SDS011;5513;50.580;8.818;2022-08-01T06:18:51;5.67;;;5.17;;
10920;SDS011;5513;50.580;8.818;2022-08-01T06:21:22;6.23;;;5.70;;
10920;SDS011;5513;50.580;8.818;2022-08-01T06:23:50;6.03;;;5.30;;
10920;SDS011;5513;50.580;8.818;2022-08-01T06:26:18;6.00;;;5.40;;
10920;SDS011;5513;50.580;8.818;2022-08-01T06:28:49;5.70;;;5.10;;
10920;SDS011;5513;50.580;8.818;2022-08-01T06:31:19;6.43;;;5.37;;
10920;SDS011;5513;50.580;8.818;2022-08-01T06:33:49;10.13;;;5.73;;
10920;SDS011;5513;50.580;8.818;2022-08-01T06:36:17;6.57;;;5.90;;
10920;SDS011;5513;50.580;8.818;2022-08-01T06:38:45;7.73;;;6.20;;
10920;SDS011;5513;50.580;8.818;2022-08-01T06:41:14;6.73;;;6.13;;
10920;SDS011;5513;50.580;8.818;2022-08-01T06:43:42;7.07;;;5.97;;
10920;SDS011;5513;50.580;8.818;2022-08-01T06:46:10;7.80;;;5.73;;
10920;SDS011;5513;50.580;8.818;2022-08-01T06:48:40;7.00;;;6.30;;
10920;SDS011;5513;50.580;8.818;2022-08-01T06:51:09;7.10;;;6.40;;
10920;SDS011;5513;50.580;8.818;2022-08-01T06:53:40;10.00;;;6.63;;
10920;SDS011;5513;50.580;8.818;2022-08-01T06:56:10;7.10;;;6.40;;
10920;SDS011;5513;50.580;8.818;2022-08-01T06:58:38;6.73;;;6.13;;
10920;SDS011;5513;50.580;8.818;2022-08-01T07:01:06;8.10;;;6.80;;
10920;SDS011;5513;50.580;8.818;2022-08-01T07:03:36;9.20;;;6.37;;
10920;SDS011;5513;50.580;8.818;2022-08-01T07:06:22;8.23;;;6.20;;
10920;SDS011;5513;50.580;8.818;2022-08-01T07:08:51;6.60;;;6.00;;
10920;SDS011;5513;50.580;8.818;2022-08-01T07:11:19;7.20;;;5.90;;
10920;SDS011;5513;50.580;8.818;2022-08-01T07:13:48;9.10;;;6.23;;
10920;SDS011;5513;50.580;8.818;2022-08-01T07:16:16;9.53;;;6.73;;
10920;SDS011;5513;50.580;8.818;2022-08-01T07:18:44;9.50;;;6.17;;
10920;SDS011;5513;50.580;8.818;2022-08-01T07:21:13;7.20;;;5.87;;
10920;SDS011;5513;50.580;8.818;2022-08-01T07:24:03;9.60;;;6.63;;
10920;SDS011;5513;50.580;8.818;2022-08-01T07:26:39;7.10;;;6.40;;
10920;SDS011;5513;50.580;8.818;2022-08-01T07:29:20;7.97;;;7.17;;
10920;SDS011;5513;50.580;8.818;2022-08-01T07:31:49;7.03;;;6.33;;
10920;SDS011;5513;50.580;8.818;2022-08-01T07:34:18;7.33;;;6.40;;
10920;SDS011;5513;50.580;8.818;2022-08-01T07:36:47;7.73;;;6.83;;
10920;SDS011;5513;50.580;8.818;2022-08-01T07:39:17;7.10;;;6.40;;
10920;SDS011;5513;50.580;8.818;2022-08-01T07:41:45;7.60;;;6.83;;
10920;SDS011;5513;50.580;8.818;2022-08-01T07:44:35;8.73;;;7.13;;
10920;SDS011;5513;50.580;8.818;2022-08-01T07:47:04;7.43;;;6.50;;
10920;SDS011;5513;50.580;8.818;2022-08-01T07:49:33;7.80;;;7.00;;
10920;SDS011;5513;50.580;8.818;2022-08-01T07:52:06;7.90;;;7.20;;
10920;SDS011;5513;50.580;8.818;2022-08-01T07:54:36;8.37;;;7.03;;
10920;SDS011;5513;50.580;8.818;2022-08-01T07:57:04;7.70;;;6.70;;
10920;SDS011;5513;50.580;8.818;2022-08-01T07:59:33;8.07;;;6.30;;
10920;SDS011;5513;50.580;8.818;2022-08-01T08:02:02;7.53;;;6.60;;
10920;SDS011;5513;50.580;8.818;2022-08-01T08:04:31;8.43;;;7.07;;
10920;SDS011;5513;50.580;8.818;2022-08-01T08:06:59;7.82;;;6.80;;
10920;SDS011;5513;50.580;8.818;2022-08-01T08:09:28;10.27;;;7.45;;
10920;SDS011;5513;50.580;8.818;2022-08-01T08:12:05;6.70;;;6.10;;
10920;SDS011;5513;50.580;8.818;2022-08-01T08:14:34;7.53;;;6.15;;
10920;SDS011;5513;50.580;8.818;2022-08-01T08:17:03;6.80;;;5.90;;
10920;SDS011;5513;50.580;8.818;2022-08-01T08:19:31;8.35;;;6.50;;
10920;SDS011;5513;50.580;8.818;2022-08-01T08:22:03;7.13;;;5.97;;
10920;SDS011;5513;50.580;8.818;2022-08-01T08:24:34;7.05;;;5.78;;
10920;SDS011;5513;50.580;8.818;2022-08-01T08:27:13;7.75;;;5.80;;
10920;SDS011;5513;50.580;8.818;2022-08-01T08:29:44;7.88;;;5.90;;
10920;SDS011;5513;50.580;8.818;2022-08-01T08:32:13;7.95;;;5.07;;
10920;SDS011;5513;50.580;8.818;2022-08-01T08:34:41;6.05;;;5.53;;
10920;SDS011;5513;50.580;8.818;2022-08-01T08:37:10;6.28;;;5.43;;
10920;SDS011;5513;50.580;8.818;2022-08-01T08:39:39;7.22;;;5.88;;
10920;SDS011;5513;50.580;8.818;2022-08-01T08:42:08;7.60;;;6.00;;
10920;SDS011;5513;50.580;8.818;2022-08-01T08:44:39;7.03;;;5.88;;
10920;SDS011;5513;50.580;8.818;2022-08-01T08:47:10;7.32;;;5.47;;
10920;SDS011;5513;50.580;8.818;2022-08-01T08:49:44;6.47;;;5.88;;
10920;SDS011;5513;50.580;8.818;2022-08-01T08:52:15;7.65;;;5.90;;
10920;SDS011;5513;50.580;8.818;2022-08-01T08:54:45;8.23;;;5.53;;
10920;SDS011;5513;50.580;8.818;2022-08-01T08:57:14;5.18;;;4.68;;
10920;SDS011;5513;50.580;8.818;2022-08-01T08:59:44;4.50;;;4.10;;
10920;SDS011;5513;50.580;8.818;2022-08-01T09:02:13;5.25;;;4.47;;
10920;SDS011;5513;50.580;8.818;2022-08-01T09:04:41;4.95;;;4.45;;
10920;SDS011;5513;50.580;8.818;2022-08-01T09:07:11;4.60;;;4.20;;
10920;SDS011;5513;50.580;8.818;2022-08-01T09:09:40;5.20;;;4.70;;
10920;SDS011;5513;50.580;8.818;2022-08-01T09:12:09;5.43;;;4.90;;
10920;SDS011;5513;50.580;8.818;2022-08-01T09:14:45;5.32;;;4.82;;
10920;SDS011;5513;50.580;8.818;2022-08-01T09:17:16;5.20;;;4.70;;
10920;SDS011;5513;50.580;8.818;2022-08-01T09:19:44;5.00;;;4.50;;
10920;SDS011;5513;50.580;8.818;2022-08-01T09:22:14;6.35;;;4.40;;
10920;SDS011;5513;50.580;8.818;2022-08-01T09:24:56;4.72;;;4.28;;
10920;SDS011;5513;50.580;8.818;2022-08-01T09:27:26;5.95;;;4.82;;
10920;SDS011;5513;50.580;8.818;2022-08-01T09:30:07;5.72;;;4.82;;
10920;SDS011;5513;50.580;8.818;2022-08-01T09:32:51;7.38;;;4.78;;
10920;SDS011;5513;50.580;8.818;2022-08-01T09:35:25;4.75;;;4.35;;
10920;SDS011;5513;50.580;8.818;2022-08-01T09:38:15;5.35;;;4.80;;
10920;SDS011;5513;50.580;8.818;2022-08-01T09:40:49;5.88;;;5.10;;
10920;SDS011;5513;50.580;8.818;2022-08-01T09:43:19;4.95;;;4.55;;
10920;SDS011;5513;50.580;8.818;2022-08-01T09:45:50;5.72;;;5.00;;
10920;SDS011;5513;50.580;8.818;2022-08-01T09:48:20;5.90;;;4.43;;
10920;SDS011;5513;50.580;8.818;2022-08-01T09:50:54;5.40;;;4.90;;
10920;SDS011;5513;50.580;8.818;2022-08-01T09:53:41;5.55;;;4.82;;
10920;SDS011;5513;50.580;8.818;2022-08-01T09:56:18;5.80;;;4.90;;
10920;SDS011;5513;50.580;8.818;2022-08-01T09:58:51;5.72;;;4.72;;
10920;SDS011;5513;50.580;8.818;2022-08-01T10:01:28;6.13;;;5.53;;
10920;SDS011;5513;50.580;8.818;2022-08-01T10:04:04;5.80;;;5.30;;
10920;SDS011;5513;50.580;8.818;2022-08-01T10:06:36;8.60;;;5.57;;
10920;SDS011;5513;50.580;8.818;2022-08-01T10:09:04;7.82;;;5.88;;
10920;SDS011;5513;50.580;8.818;2022-08-01T10:11:32;6.45;;;5.38;;
10920;SDS011;5513;50.580;8.818;2022-08-01T10:14:06;6.00;;;5.40;;
10920;SDS011;5513;50.580;8.818;2022-08-01T10:16:38;6.78;;;5.53;;
10920;SDS011;5513;50.580;8.818;2022-08-01T10:19:07;6.47;;;5.38;;
10920;SDS011;5513;50.580;8.818;2022-08-01T10:21:40;6.55;;;5.40;;
10920;SDS011;5513;50.580;8.818;2022-08-01T10:24:24;5.20;;;4.70;;
10920;SDS011;5513;50.580;8.818;2022-08-01T10:26:55;6.35;;;4.45;;
10920;SDS011;5513;50.580;8.818;2022-08-01T10:29:35;4.30;;;3.90;;
10920;SDS011;5513;50.580;8.818;2022-08-01T10:32:26;7.03;;;4.88;;
10920;SDS011;5513;50.580;8.818;2022-08-01T10:34:55;6.07;;;4.63;;
10920;SDS011;5513;50.580;8.818;2022-08-01T10:37:23;9.15;;;4.70;;
10920;SDS011;5513;50.580;8.818;2022-08-01T10:39:52;4.53;;;4.10;;
10920;SDS011;5513;50.580;8.818;2022-08-01T10:42:39;4.97;;;4.57;;
10920;SDS011;5513;50.580;8.818;2022-08-01T10:45:09;6.68;;;5.00;;
10920;SDS011;5513;50.580;8.818;2022-08-01T10:47:42;5.40;;;4.80;;
10920;SDS011;5513;50.580;8.818;2022-08-01T10:50:19;5.45;;;4.95;;
10920;SDS011;5513;50.580;8.818;2022-08-01T10:53:09;5.07;;;4.57;;
10920;SDS011;5513;50.580;8.818;2022-08-01T10:55:49;5.43;;;4.93;;
10920;SDS011;5513;50.580;8.818;2022-08-01T10:58:23;5.70;;;4.50;;
10920;SDS011;5513;50.580;8.818;2022-08-01T11:03:57;4.60;;;4.20;;
10920;SDS011;5513;50.580;8.818;2022-08-01T11:06:53;4.45;;;4.05;;
10920;SDS011;5513;50.580;8.818;2022-08-01T11:09:37;5.72;;;4.10;;
10920;SDS011;5513;50.580;8.818;2022-08-01T11:12:08;6.18;;;4.47;;
10920;SDS011;5513;50.580;8.818;2022-08-01T11:17:56;4.25;;;3.85;;
10920;SDS011;5513;50.580;8.818;2022-08-01T11:20:32;4.20;;;3.60;;
10920;SDS011;5513;50.580;8.818;2022-08-01T11:23:16;4.70;;;3.35;;
10920;SDS011;5513;50.580;8.818;2022-08-01T11:28:36;4.22;;;3.90;;
10920;SDS011;5513;50.580;8.818;2022-08-01T11:31:28;4.50;;;4.03;;
10920;SDS011;5513;50.580;8.818;2022-08-01T11:34:03;3.88;;;3.33;;
10920;SDS011;5513;50.580;8.818;2022-08-01T11:36:34;4.10;;;3.70;;
10920;SDS011;5513;50.580;8.818;2022-08-01T11:39:22;3.65;;;3.35;;
10920;SDS011;5513;50.580;8.818;2022-08-01T11:41:51;4.50;;;3.40;;
10920;SDS011;5513;50.580;8.818;2022-08-01T11:44:22;5.43;;;3.60;;
10920;SDS011;5513;50.580;8.818;2022-08-01T11:47:00;6.72;;;4.60;;
10920;SDS011;5513;50.580;8.818;2022-08-01T11:52:28;6.00;;;3.75;;
10920;SDS011;5513;50.580;8.818;2022-08-01T11:55:04;3.60;;;3.30;;
10920;SDS011;5513;50.580;8.818;2022-08-01T11:57:35;5.82;;;3.47;;
10920;SDS011;5513;50.580;8.818;2022-08-01T12:00:09;4.45;;;3.60;;
10920;SDS011;5513;50.580;8.818;2022-08-01T12:02:43;4.68;;;3.35;;
10920;SDS011;5513;50.580;8.818;2022-08-01T12:05:13;4.05;;;3.70;;
10920;SDS011;5513;50.580;8.818;2022-08-01T12:07:47;3.58;;;3.20;;
10920;SDS011;5513;50.580;8.818;2022-08-01T12:10:19;4.05;;;3.35;;
10920;SDS011;5513;50.580;8.818;2022-08-01T12:12:49;3.38;;;3.08;;
10920;SDS011;5513;50.580;8.818;2022-08-01T12:15:19;3.38;;;3.08;;
10920;SDS011;5513;50.580;8.818;2022-08-01T12:17:51;3.67;;;2.95;;
10920;SDS011;5513;50.580;8.818;2022-08-01T12:20:26;3.00;;;2.80;;
10920;SDS011;5513;50.580;8.818;2022-08-01T12:22:59;2.90;;;2.60;;
10920;SDS011;5513;50.580;8.818;2022-08-01T12:25:29;3.17;;;2.88;;
10920;SDS011;5513;50.580;8.818;2022-08-01T12:27:59;3.40;;;3.10;;
10920;SDS011;5513;50.580;8.818;2022-08-01T12:30:29;4.63;;;3.20;;
10920;SDS011;5513;50.580;8.818;2022-08-01T12:33:02;4.88;;;2.83;;
10920;SDS011;5513;50.580;8.818;2022-08-01T12:35:33;4.35;;;3.08;;
10920;SDS011;5513;50.580;8.818;2022-08-01T12:38:06;2.95;;;2.70;;
10920;SDS011;5513;50.580;8.818;2022-08-01T12:40:42;2.92;;;2.70;;
10920;SDS011;5513;50.580;8.818;2022-08-01T12:43:15;4.65;;;2.90;;
10920;SDS011;5513;50.580;8.818;2022-08-01T12:45:54;3.00;;;2.70;;
10920;SDS011;5513;50.580;8.818;2022-08-01T12:48:25;3.85;;;3.03;;
10920;SDS011;5513;50.580;8.818;2022-08-01T12:50:54;2.88;;;2.67;;
10920;SDS011;5513;50.580;8.818;2022-08-01T12:53:29;3.03;;;2.67;;
10920;SDS011;5513;50.580;8.818;2022-08-01T12:56:07;3.20;;;2.90;;
10920;SDS011;5513;50.580;8.818;2022-08-01T12:58:38;3.72;;;2.85;;
10920;SDS011;5513;50.580;8.818;2022-08-01T13:01:07;4.10;;;2.83;;
10920;SDS011;5513;50.580;8.818;2022-08-01T13:03:38;3.42;;;3.00;;
10920;SDS011;5513;50.580;8.818;2022-08-01T13:06:10;3.05;;;2.78;;
10920;SDS011;5513;50.580;8.818;2022-08-01T13:08:43;3.13;;;2.92;;
10920;SDS011;5513;50.580;8.818;2022-08-01T13:11:13;2.72;;;2.30;;
10920;SDS011;5513;50.580;8.818;2022-08-01T13:13:44;3.10;;;2.50;;
10920;SDS011;5513;50.580;8.818;2022-08-01T13:16:15;2.95;;;2.65;;
10920;SDS011;5513;50.580;8.818;2022-08-01T13:18:59;2.78;;;2.58;;
10920;SDS011;5513;50.580;8.818;2022-08-01T13:21:28;3.50;;;2.30;;
10920;SDS011;5513;50.580;8.818;2022-08-01T13:24:23;2.97;;;2.58;;
10920;SDS011;5513;50.580;8.818;2022-08-01T13:26:54;4.00;;;2.35;;
10920;SDS011;5513;50.580;8.818;2022-08-01T13:29:29;2.78;;;2.47;;
10920;SDS011;5513;50.580;8.818;2022-08-01T13:31:59;2.75;;;2.53;;
10920;SDS011;5513;50.580;8.818;2022-08-01T13:34:30;3.83;;;2.80;;
10920;SDS011;5513;50.580;8.818;2022-08-01T13:37:00;2.70;;;2.50;;
10920;SDS011;5513;50.580;8.818;2022-08-01T13:39:30;3.08;;;2.75;;
10920;SDS011;5513;50.580;8.818;2022-08-01T13:42:08;3.25;;;2.75;;
10920;SDS011;5513;50.580;8.818;2022-08-01T13:44:44;3.15;;;2.90;;
10920;SDS011;5513;50.580;8.818;2022-08-01T13:47:12;3.45;;;2.90;;
10920;SDS011;5513;50.580;8.818;2022-08-01T13:49:42;3.85;;;2.85;;
10920;SDS011;5513;50.580;8.818;2022-08-01T13:52:10;4.28;;;3.17;;
10920;SDS011;5513;50.580;8.818;2022-08-01T13:54:40;3.10;;;2.90;;
10920;SDS011;5513;50.580;8.818;2022-08-01T13:57:08;3.17;;;2.75;;
10920;SDS011;5513;50.580;8.818;2022-08-01T13:59:37;3.08;;;2.88;;
10920;SDS011;5513;50.580;8.818;2022-08-01T14:02:06;2.85;;;2.58;;
10920;SDS011;5513;50.580;8.818;2022-08-01T14:04:35;2.67;;;2.47;;
10920;SDS011;5513;50.580;8.818;2022-08-01T14:07:03;2.97;;;2.78;;
10920;SDS011;5513;50.580;8.818;2022-08-01T14:09:37;2.83;;;2.63;;
10920;SDS011;5513;50.580;8.818;2022-08-01T14:12:12;2.90;;;2.70;;
10920;SDS011;5513;50.580;8.818;2022-08-01T14:14:40;4.70;;;2.90;;
10920;SDS011;5513;50.580;8.818;2022-08-01T14:17:09;2.83;;;2.42;;
10920;SDS011;5513;50.580;8.818;2022-08-01T14:19:37;3.42;;;3.13;;
10920;SDS011;5513;50.580;8.818;2022-08-01T14:22:11;3.15;;;2.95;;
10920;SDS011;5513;50.580;8.818;2022-08-01T14:24:41;2.47;;;2.28;;
10920;SDS011;5513;50.580;8.818;2022-08-01T14:27:14;2.50;;;2.30;;
10920;SDS011;5513;50.580;8.818;2022-08-01T14:29:44;1.95;;;1.85;;
10920;SDS011;5513;50.580;8.818;2022-08-01T14:32:28;2.60;;;2.40;;
10920;SDS011;5513;50.580;8.818;2022-08-01T14:34:57;2.55;;;2.35;;
10920;SDS011;5513;50.580;8.818;2022-08-01T14:37:27;2.63;;;2.42;;
10920;SDS011;5513;50.580;8.818;2022-08-01T14:40:03;2.13;;;1.90;;
10920;SDS011;5513;50.580;8.818;2022-08-01T14:42:36;2.10;;;1.95;;
10920;SDS011;5513;50.580;8.818;2022-08-01T14:45:06;2.35;;;2.15;;
10920;SDS011;5513;50.580;8.818;2022-08-01T14:47:36;2.15;;;1.88;;
10920;SDS011;5513;50.580;8.818;2022-08-01T14:50:05;2.63;;;2.15;;
10920;SDS011;5513;50.580;8.818;2022-08-01T14:52:34;2.30;;;2.10;;
10920;SDS011;5513;50.580;8.818;2022-08-01T14:55:03;2.45;;;2.25;;
10920;SDS011;5513;50.580;8.818;2022-08-01T14:57:33;2.33;;;2.13;;
10920;SDS011;5513;50.580;8.818;2022-08-01T15:00:04;2.33;;;2.05;;
10920;SDS011;5513;50.580;8.818;2022-08-01T15:02:34;2.30;;;2.10;;
10920;SDS011;5513;50.580;8.818;2022-08-01T15:05:02;2.05;;;1.90;;
10920;SDS011;5513;50.580;8.818;2022-08-01T15:07:31;2.13;;;1.90;;
10920;SDS011;5513;50.580;8.818;2022-08-01T15:10:03;3.60;;;1.80;;
10920;SDS011;5513;50.580;8.818;2022-08-01T15:12:32;2.30;;;2.00;;
10920;SDS011;5513;50.580;8.818;2022-08-01T15:15:17;2.75;;;2.05;;
10920;SDS011;5513;50.580;8.818;2022-08-01T15:17:45;2.40;;;2.20;;
10920;SDS011;5513;50.580;8.818;2022-08-01T15:20:13;2.20;;;2.00;;
10920;SDS011;5513;50.580;8.818;2022-08-01T15:22:43;2.42;;;2.22;;
10920;SDS011;5513;50.580;8.818;2022-08-01T15:25:11;2.15;;;2.03;;
10920;SDS011;5513;50.580;8.818;2022-08-01T15:27:40;1.88;;;1.73;;
10920;SDS011;5513;50.580;8.818;2022-08-01T15:30:08;2.67;;;2.10;;
10920;SDS011;5513;50.580;8.818;2022-08-01T15:32:38;2.25;;;2.05;;
10920;SDS011;5513;50.580;8.818;2022-08-01T15:35:06;2.25;;;2.00;;
10920;SDS011;5513;50.580;8.818;2022-08-01T15:37:36;2.35;;;2.08;;
10920;SDS011;5513;50.580;8.818;2022-08-01T15:40:08;3.03;;;2.30;;
10920;SDS011;5513;50.580;8.818;2022-08-01T15:42:37;2.50;;;2.22;;
10920;SDS011;5513;50.580;8.818;2022-08-01T15:45:06;3.45;;;1.95;;
10920;SDS011;5513;50.580;8.818;2022-08-01T15:47:57;3.58;;;1.90;;